createdAt,value
2019-03-06T21:35:13.784Z,85.80
2019-03-06T21:36:14.026Z,85.81
2019-03-06T21:37:13.976Z,85.38
2019-03-06T21:38:15.861Z,84.91
2019-03-06T21:39:18.091Z,85.65
2019-03-06T21:40:15.991Z,86.71
2019-03-06T21:41:17.615Z,86.35
2019-03-06T21:42:18.276Z,86.19
2019-03-06T21:43:17.989Z,86.70
2019-03-06T21:44:18.062Z,86.88
2019-03-06T21:45:19.874Z,86.65
2019-03-06T21:46:20.025Z,86.47
2019-03-06T21:47:20.756Z,85.77
2019-03-06T21:48:20.474Z,85.23
2019-03-06T21:49:22.363Z,85.90
2019-03-06T21:50:21.375Z,86.14
2019-03-06T21:51:23.044Z,86.26
2019-03-06T21:52:23.809Z,86.27
2019-03-06T21:53:23.478Z,85.37
2019-03-06T21:54:25.244Z,84.54
2019-03-06T21:55:24.923Z,84.42
2019-03-06T21:56:25.645Z,84.71
2019-03-06T21:57:26.380Z,86.09
2019-03-06T21:58:29.632Z,83.76
2019-03-06T21:59:27.905Z,81.93
2019-03-06T22:00:28.536Z,81.79
2019-03-06T22:01:29.158Z,83.89
2019-03-06T22:02:30.729Z,84.42
2019-03-06T22:03:30.617Z,84.72
2019-03-06T22:04:33.278Z,83.58
2019-03-06T22:05:31.773Z,84.01
2019-03-06T22:06:32.351Z,84.66
2019-03-06T22:07:32.986Z,80.40
2019-03-06T22:08:34.628Z,80.57
2019-03-06T22:09:36.097Z,82.38
2019-03-06T22:10:34.915Z,82.78
2019-03-06T22:11:36.665Z,82.91
2019-03-06T22:12:37.524Z,82.51
2019-03-06T22:13:36.746Z,83.30
2019-03-06T22:14:38.532Z,80.79
2019-03-06T22:15:38.458Z,82.11
2019-03-06T22:16:38.584Z,81.66
2019-03-06T22:17:39.694Z,80.78
2019-03-06T22:18:40.659Z,81.06
2019-03-06T22:19:41.313Z,81.29
2019-03-06T22:20:41.352Z,80.22
2019-03-06T22:21:42.023Z,79.77
2019-03-06T22:22:41.148Z,80.72
2019-03-06T22:23:43.024Z,80.74
2019-03-06T22:24:42.711Z,79.51
2019-03-06T22:25:44.628Z,79.75
2019-03-06T22:26:45.297Z,79.65
2019-03-06T22:27:44.890Z,79.95
2019-03-06T22:28:46.759Z,80.13
2019-03-06T22:29:46.251Z,81.29
2019-03-06T22:30:47.851Z,80.21
2019-03-06T22:31:46.815Z,78.74
2019-03-06T22:32:48.529Z,78.80
2019-03-06T22:33:48.301Z,78.87
2019-03-06T22:34:52.032Z,79.91
2019-03-06T22:35:49.187Z,80.41
2019-03-06T22:36:50.997Z,81.15
2019-03-06T22:37:51.202Z,80.88
2019-03-06T22:38:51.168Z,80.03
2019-03-06T22:39:52.429Z,79.53
2019-03-06T22:40:53.335Z,80.02
2019-03-06T22:41:53.778Z,80.31
2019-03-06T22:42:53.434Z,80.50
2019-03-06T22:43:54.792Z,81.67
2019-03-06T22:44:03.337Z,81.30
2019-03-06T22:45:04.954Z,81.28
2019-03-06T22:46:04.555Z,81.57
2019-03-06T22:47:06.323Z,82.38
2019-03-06T22:48:06.936Z,81.85
2019-03-06T22:49:06.720Z,81.75
2019-03-06T22:50:08.427Z,82.42
2019-03-06T22:51:09.396Z,81.73
2019-03-06T22:52:10.127Z,81.71
2019-03-06T22:53:11.065Z,81.20
2019-03-06T22:54:11.674Z,81.51
2019-03-06T22:55:12.272Z,82.17
2019-03-06T22:56:12.731Z,82.12
2019-03-06T22:57:12.981Z,83.24
2019-03-06T22:58:12.893Z,84.25
2019-03-06T22:59:14.444Z,85.07
2019-03-06T23:00:14.011Z,84.72
2019-03-06T23:01:15.564Z,85.35
2019-03-06T23:02:16.199Z,85.44
2019-03-06T23:03:16.898Z,85.38
2019-03-06T23:04:17.884Z,85.69
2019-03-06T23:05:18.482Z,86.12
2019-03-06T23:06:19.145Z,86.09
2019-03-06T23:07:18.881Z,84.82
2019-03-06T23:08:20.561Z,84.41
2019-03-06T23:09:21.405Z,84.93
2019-03-06T23:10:22.122Z,84.86
2019-03-06T23:11:22.133Z,85.22
2019-03-06T23:12:22.182Z,86.23
2019-03-06T23:13:23.000Z,85.28
2019-03-06T23:14:22.731Z,85.49
2019-03-06T23:15:23.585Z,85.24
2019-03-06T23:16:24.270Z,85.59
2019-03-06T23:17:25.508Z,85.47
2019-03-06T23:18:26.634Z,85.43
2019-03-06T23:19:25.570Z,86.16
2019-03-06T23:20:27.219Z,85.79
2019-03-06T23:21:27.969Z,86.22
2019-03-06T23:22:28.612Z,85.42
2019-03-06T23:23:29.413Z,86.96
2019-03-06T23:24:28.959Z,86.45
2019-03-06T23:25:30.021Z,86.03
2019-03-06T23:26:30.656Z,87.19
2019-03-06T23:27:31.265Z,87.42
2019-03-06T23:28:32.280Z,88.31
2019-03-06T23:29:32.968Z,88.36
2019-03-06T23:30:33.548Z,88.89
2019-03-06T23:31:34.414Z,88.86
2019-03-06T23:32:35.182Z,88.74
2019-03-06T23:33:34.785Z,88.79
2019-03-06T23:34:36.476Z,88.73
2019-03-06T23:35:37.013Z,88.34
2019-03-06T23:36:37.370Z,88.20
2019-03-06T23:36:47.342Z,88.30
2019-03-06T23:37:49.190Z,88.32
2019-03-06T23:38:49.319Z,88.80
2019-03-06T23:39:49.508Z,88.64
2019-03-06T23:40:50.321Z,88.53
2019-03-06T23:41:49.910Z,88.60
2019-03-06T23:42:51.454Z,88.84
2019-03-06T23:43:51.932Z,89.09
2019-03-06T23:44:52.472Z,89.12
2019-03-06T23:45:53.077Z,89.77
2019-03-06T23:46:53.660Z,89.86
2019-03-06T23:47:54.223Z,89.25
2019-03-06T23:48:54.875Z,89.66
2019-03-06T23:49:55.564Z,89.89
2019-03-06T23:50:56.137Z,89.87
2019-03-06T23:51:55.774Z,89.76
2019-03-06T23:52:57.667Z,89.75
2019-03-06T23:53:57.283Z,89.40
2019-03-06T23:54:57.954Z,90.31
2019-03-06T23:55:59.893Z,90.49
2019-03-06T23:57:00.568Z,90.49
2019-03-06T23:57:59.547Z,90.93
2019-03-06T23:59:00.474Z,90.83
